sensor_id;sensor_type;location;lat;lon;timestamp;temperature;humidity
54576;DHT22;40472;53.486;14.542;2023-03-23T00:01:15;10.50;99.90
54576;DHT22;40472;53.486;14.542;2023-03-23T00:03:46;10.50;99.90
54576;DHT22;40472;53.486;14.542;2023-03-23T00:06:13;10.40;99.90
54576;DHT22;40472;53.486;14.542;2023-03-23T00:08:45;10.30;99.90
54576;DHT22;40472;53.486;14.542;2023-03-23T00:11:20;10.30;99.90
54576;DHT22;40472;53.486;14.542;2023-03-23T00:13:48;10.20;99.90
54576;DHT22;40472;53.486;14.542;2023-03-23T00:16:20;10.20;99.90
54576;DHT22;40472;53.486;14.542;2023-03-23T00:18:55;10.10;99.90
54576;DHT22;40472;53.486;14.542;2023-03-23T00:21:26;10.10;99.90
54576;DHT22;40472;53.486;14.542;2023-03-23T00:24:05;10.00;99.90
54576;DHT22;40472;53.486;14.542;2023-03-23T00:26:39;10.00;99.90
54576;DHT22;40472;53.486;14.542;2023-03-23T00:29:18;10.00;99.90
54576;DHT22;40472;53.486;14.542;2023-03-23T00:31:45;9.90;99.90
54576;DHT22;40472;53.486;14.542;2023-03-23T00:34:15;9.90;99.90
54576;DHT22;40472;53.486;14.542;2023-03-23T00:36:49;9.90;99.90
54576;DHT22;40472;53.486;14.542;2023-03-23T00:39:16;9.90;99.90
54576;DHT22;40472;53.486;14.542;2023-03-23T00:41:48;9.80;99.90
54576;DHT22;40472;53.486;14.542;2023-03-23T00:44:15;9.90;99.90
54576;DHT22;40472;53.486;14.542;2023-03-23T00:46:49;9.80;99.90
54576;DHT22;40472;53.486;14.542;2023-03-23T00:49:20;9.80;99.90
54576;DHT22;40472;53.486;14.542;2023-03-23T00:51:51;9.80;99.90
54576;DHT22;40472;53.486;14.542;2023-03-23T00:54:17;9.80;99.90
54576;DHT22;40472;53.486;14.542;2023-03-23T00:56:43;9.70;99.90
54576;DHT22;40472;53.486;14.542;2023-03-23T00:59:08;9.60;99.90
54576;DHT22;40472;53.486;14.542;2023-03-23T01:01:35;9.40;99.90
54576;DHT22;40472;53.486;14.542;2023-03-23T01:04:02;9.40;99.90
54576;DHT22;40472;53.486;14.542;2023-03-23T01:06:36;9.30;99.90
54576;DHT22;40472;53.486;14.542;2023-03-23T01:09:07;9.10;99.90
54576;DHT22;40472;53.486;14.542;2023-03-23T01:11:33;9.10;99.90
54576;DHT22;40472;53.486;14.542;2023-03-23T01:13:59;9.00;99.90
54576;DHT22;40472;53.486;14.542;2023-03-23T01:16:27;8.90;99.90
54576;DHT22;40472;53.486;14.542;2023-03-23T01:18:53;8.70;99.90
54576;DHT22;40472;53.486;14.542;2023-03-23T01:21:20;8.60;99.90
54576;DHT22;40472;53.486;14.542;2023-03-23T01:23:46;8.50;99.90
54576;DHT22;40472;53.486;14.542;2023-03-23T01:26:17;8.50;99.90
54576;DHT22;40472;53.486;14.542;2023-03-23T01:28:44;8.70;99.90
54576;DHT22;40472;53.486;14.542;2023-03-23T01:31:13;8.80;99.90
54576;DHT22;40472;53.486;14.542;2023-03-23T01:33:40;8.90;99.90
54576;DHT22;40472;53.486;14.542;2023-03-23T01:36:10;9.10;99.90
54576;DHT22;40472;53.486;14.542;2023-03-23T01:38:36;9.30;99.90
54576;DHT22;40472;53.486;14.542;2023-03-23T01:41:02;9.50;99.90
54576;DHT22;40472;53.486;14.542;2023-03-23T01:43:28;9.50;99.90
54576;DHT22;40472;53.486;14.542;2023-03-23T01:45:54;9.60;99.90
54576;DHT22;40472;53.486;14.542;2023-03-23T01:48:29;9.70;99.90
54576;DHT22;40472;53.486;14.542;2023-03-23T01:51:12;9.70;99.90
54576;DHT22;40472;53.486;14.542;2023-03-23T01:53:59;9.70;99.90
54576;DHT22;40472;53.486;14.542;2023-03-23T01:56:28;9.80;99.90
54576;DHT22;40472;53.486;14.542;2023-03-23T01:58:58;9.80;99.90
54576;DHT22;40472;53.486;14.542;2023-03-23T02:01:25;9.70;99.90
54576;DHT22;40472;53.486;14.542;2023-03-23T02:03:54;9.80;99.90
54576;DHT22;40472;53.486;14.542;2023-03-23T02:06:21;9.80;99.90
54576;DHT22;40472;53.486;14.542;2023-03-23T02:08:49;9.80;99.90
54576;DHT22;40472;53.486;14.542;2023-03-23T02:11:21;9.80;99.90
54576;DHT22;40472;53.486;14.542;2023-03-23T02:13:48;9.90;99.90
54576;DHT22;40472;53.486;14.542;2023-03-23T02:19:12;10.00;99.90
54576;DHT22;40472;53.486;14.542;2023-03-23T02:27:14;10.00;99.90
54576;DHT22;40472;53.486;14.542;2023-03-23T02:35:39;10.00;99.90
54576;DHT22;40472;53.486;14.542;2023-03-23T02:38:15;10.00;99.90
54576;DHT22;40472;53.486;14.542;2023-03-23T02:40:45;10.00;99.90
54576;DHT22;40472;53.486;14.542;2023-03-23T02:43:15;9.90;99.90
54576;DHT22;40472;53.486;14.542;2023-03-23T02:45:44;9.90;99.90
54576;DHT22;40472;53.486;14.542;2023-03-23T02:48:13;9.90;99.90
54576;DHT22;40472;53.486;14.542;2023-03-23T02:50:43;10.00;99.90
54576;DHT22;40472;53.486;14.542;2023-03-23T02:53:12;10.00;99.90
54576;DHT22;40472;53.486;14.542;2023-03-23T02:55:41;10.00;99.90
54576;DHT22;40472;53.486;14.542;2023-03-23T02:58:08;10.00;99.90
54576;DHT22;40472;53.486;14.542;2023-03-23T03:00:35;10.10;99.90
54576;DHT22;40472;53.486;14.542;2023-03-23T03:03:04;10.10;99.90
54576;DHT22;40472;53.486;14.542;2023-03-23T03:06:03;10.10;99.90
54576;DHT22;40472;53.486;14.542;2023-03-23T03:08:43;10.10;99.90
54576;DHT22;40472;53.486;14.542;2023-03-23T03:11:16;10.00;99.90
54576;DHT22;40472;53.486;14.542;2023-03-23T03:14:05;10.00;99.90
54576;DHT22;40472;53.486;14.542;2023-03-23T03:16:40;10.10;99.90
54576;DHT22;40472;53.486;14.542;2023-03-23T03:19:24;10.00;99.90
54576;DHT22;40472;53.486;14.542;2023-03-23T03:21:54;10.00;99.90
54576;DHT22;40472;53.486;14.542;2023-03-23T03:24:21;10.00;99.90
54576;DHT22;40472;53.486;14.542;2023-03-23T03:26:50;10.00;99.90
54576;DHT22;40472;53.486;14.542;2023-03-23T03:29:20;10.00;99.90
54576;DHT22;40472;53.486;14.542;2023-03-23T03:31:49;9.90;99.90
54576;DHT22;40472;53.486;14.542;2023-03-23T03:34:16;10.00;99.90
54576;DHT22;40472;53.486;14.542;2023-03-23T03:36:47;10.00;99.90
54576;DHT22;40472;53.486;14.542;2023-03-23T03:39:14;10.00;99.90
54576;DHT22;40472;53.486;14.542;2023-03-23T03:41:42;10.00;99.90
54576;DHT22;40472;53.486;14.542;2023-03-23T03:44:08;9.90;99.90
54576;DHT22;40472;53.486;14.542;2023-03-23T03:46:35;9.80;99.90
54576;DHT22;40472;53.486;14.542;2023-03-23T03:49:03;9.70;99.90
54576;DHT22;40472;53.486;14.542;2023-03-23T03:51:30;9.70;99.90
54576;DHT22;40472;53.486;14.542;2023-03-23T03:53:56;9.70;99.90
54576;DHT22;40472;53.486;14.542;2023-03-23T03:56:23;9.60;99.90
54576;DHT22;40472;53.486;14.542;2023-03-23T03:58:50;9.50;99.90
54576;DHT22;40472;53.486;14.542;2023-03-23T04:01:17;9.50;99.90
54576;DHT22;40472;53.486;14.542;2023-03-23T04:03:43;9.50;99.90
54576;DHT22;40472;53.486;14.542;2023-03-23T04:06:09;9.50;99.90
54576;DHT22;40472;53.486;14.542;2023-03-23T04:08:36;9.40;99.90
54576;DHT22;40472;53.486;14.542;2023-03-23T04:11:07;9.40;99.90
54576;DHT22;40472;53.486;14.542;2023-03-23T04:13:33;9.30;99.90
54576;DHT22;40472;53.486;14.542;2023-03-23T04:15:59;9.30;99.90
54576;DHT22;40472;53.486;14.542;2023-03-23T04:18:25;9.20;99.90
54576;DHT22;40472;53.486;14.542;2023-03-23T04:20:52;9.20;99.90
54576;DHT22;40472;53.486;14.542;2023-03-23T04:23:20;9.20;99.90
54576;DHT22;40472;53.486;14.542;2023-03-23T04:25:48;9.20;99.90
54576;DHT22;40472;53.486;14.542;2023-03-23T04:28:15;9.10;99.90
54576;DHT22;40472;53.486;14.542;2023-03-23T04:30:42;9.10;99.90
54576;DHT22;40472;53.486;14.542;2023-03-23T04:33:09;9.10;99.90
54576;DHT22;40472;53.486;14.542;2023-03-23T04:35:43;9.00;99.90
54576;DHT22;40472;53.486;14.542;2023-03-23T04:38:12;9.00;99.90
54576;DHT22;40472;53.486;14.542;2023-03-23T04:40:40;9.00;99.90
54576;DHT22;40472;53.486;14.542;2023-03-23T04:43:06;9.10;99.90
54576;DHT22;40472;53.486;14.542;2023-03-23T04:45:35;9.00;99.90
54576;DHT22;40472;53.486;14.542;2023-03-23T04:48:03;9.00;99.90
54576;DHT22;40472;53.486;14.542;2023-03-23T04:50:31;8.90;99.90
54576;DHT22;40472;53.486;14.542;2023-03-23T04:52:59;8.90;99.90
54576;DHT22;40472;53.486;14.542;2023-03-23T04:55:30;8.90;99.90
54576;DHT22;40472;53.486;14.542;2023-03-23T04:57:57;8.90;99.90
54576;DHT22;40472;53.486;14.542;2023-03-23T05:00:25;8.90;99.90
54576;DHT22;40472;53.486;14.542;2023-03-23T05:02:52;9.00;99.90
54576;DHT22;40472;53.486;14.542;2023-03-23T05:05:19;8.90;99.90
54576;DHT22;40472;53.486;14.542;2023-03-23T05:07:45;8.90;99.90
54576;DHT22;40472;53.486;14.542;2023-03-23T05:10:12;8.90;99.90
54576;DHT22;40472;53.486;14.542;2023-03-23T05:12:39;8.90;99.90
54576;DHT22;40472;53.486;14.542;2023-03-23T05:15:06;9.00;99.90
54576;DHT22;40472;53.486;14.542;2023-03-23T05:17:33;8.90;99.90
54576;DHT22;40472;53.486;14.542;2023-03-23T05:19:59;8.90;99.90
54576;DHT22;40472;53.486;14.542;2023-03-23T05:22:28;9.00;99.90
54576;DHT22;40472;53.486;14.542;2023-03-23T05:24:54;8.90;99.90
54576;DHT22;40472;53.486;14.542;2023-03-23T05:27:20;9.00;99.90
54576;DHT22;40472;53.486;14.542;2023-03-23T05:29:46;8.90;99.90
54576;DHT22;40472;53.486;14.542;2023-03-23T05:32:17;9.00;99.90
54576;DHT22;40472;53.486;14.542;2023-03-23T05:34:44;9.00;99.90
54576;DHT22;40472;53.486;14.542;2023-03-23T05:37:12;9.00;99.90
54576;DHT22;40472;53.486;14.542;2023-03-23T05:39:39;9.00;99.90
54576;DHT22;40472;53.486;14.542;2023-03-23T05:42:06;9.00;99.90
54576;DHT22;40472;53.486;14.542;2023-03-23T05:44:33;9.10;99.90
54576;DHT22;40472;53.486;14.542;2023-03-23T05:46:58;9.00;99.90
54576;DHT22;40472;53.486;14.542;2023-03-23T05:49:24;9.10;99.90
54576;DHT22;40472;53.486;14.542;2023-03-23T05:51:51;9.10;99.90
54576;DHT22;40472;53.486;14.542;2023-03-23T05:54:18;9.10;99.90
54576;DHT22;40472;53.486;14.542;2023-03-23T05:56:44;9.10;99.90
54576;DHT22;40472;53.486;14.542;2023-03-23T05:59:09;9.10;99.90
54576;DHT22;40472;53.486;14.542;2023-03-23T06:01:37;9.10;99.90
54576;DHT22;40472;53.486;14.542;2023-03-23T06:04:03;9.00;99.90
54576;DHT22;40472;53.486;14.542;2023-03-23T06:06:30;9.00;99.90
54576;DHT22;40472;53.486;14.542;2023-03-23T06:08:57;9.00;99.90
54576;DHT22;40472;53.486;14.542;2023-03-23T06:11:24;9.00;99.90
54576;DHT22;40472;53.486;14.542;2023-03-23T06:13:50;8.90;99.90
54576;DHT22;40472;53.486;14.542;2023-03-23T06:16:16;8.90;99.90
54576;DHT22;40472;53.486;14.542;2023-03-23T06:18:42;9.00;99.90
54576;DHT22;40472;53.486;14.542;2023-03-23T06:21:09;8.90;99.90
54576;DHT22;40472;53.486;14.542;2023-03-23T06:23:35;8.90;99.90
54576;DHT22;40472;53.486;14.542;2023-03-23T06:26:06;9.00;99.90
54576;DHT22;40472;53.486;14.542;2023-03-23T06:28:33;9.00;99.90
54576;DHT22;40472;53.486;14.542;2023-03-23T06:31:04;9.00;99.90
54576;DHT22;40472;53.486;14.542;2023-03-23T06:33:33;9.00;99.90
54576;DHT22;40472;53.486;14.542;2023-03-23T06:35:59;9.00;99.90
54576;DHT22;40472;53.486;14.542;2023-03-23T06:38:25;9.00;99.90
54576;DHT22;40472;53.486;14.542;2023-03-23T06:40:55;9.00;99.90
54576;DHT22;40472;53.486;14.542;2023-03-23T06:43:21;9.00;99.90
54576;DHT22;40472;53.486;14.542;2023-03-23T06:45:47;9.10;99.90
54576;DHT22;40472;53.486;14.542;2023-03-23T06:48:16;9.10;99.90
54576;DHT22;40472;53.486;14.542;2023-03-23T06:50:45;9.10;99.90
54576;DHT22;40472;53.486;14.542;2023-03-23T06:53:12;9.10;99.90
54576;DHT22;40472;53.486;14.542;2023-03-23T06:55:38;9.20;99.90
54576;DHT22;40472;53.486;14.542;2023-03-23T06:58:08;9.20;99.90
54576;DHT22;40472;53.486;14.542;2023-03-23T07:00:34;9.20;99.90
54576;DHT22;40472;53.486;14.542;2023-03-23T07:03:00;9.20;99.90
54576;DHT22;40472;53.486;14.542;2023-03-23T07:05:26;9.20;99.90
54576;DHT22;40472;53.486;14.542;2023-03-23T07:07:52;9.30;99.90
54576;DHT22;40472;53.486;14.542;2023-03-23T07:10:18;9.30;99.90
54576;DHT22;40472;53.486;14.542;2023-03-23T07:12:48;9.20;99.90
54576;DHT22;40472;53.486;14.542;2023-03-23T07:15:15;9.30;99.90
54576;DHT22;40472;53.486;14.542;2023-03-23T07:17:42;9.20;99.90
54576;DHT22;40472;53.486;14.542;2023-03-23T07:20:08;9.20;99.90
54576;DHT22;40472;53.486;14.542;2023-03-23T07:22:34;9.30;99.90
54576;DHT22;40472;53.486;14.542;2023-03-23T07:25:00;9.20;99.90
54576;DHT22;40472;53.486;14.542;2023-03-23T07:27:26;9.20;99.90
54576;DHT22;40472;53.486;14.542;2023-03-23T07:29:55;9.30;99.90
54576;DHT22;40472;53.486;14.542;2023-03-23T07:32:21;9.30;99.90
54576;DHT22;40472;53.486;14.542;2023-03-23T07:34:49;9.30;99.90
54576;DHT22;40472;53.486;14.542;2023-03-23T07:37:15;9.40;99.90
54576;DHT22;40472;53.486;14.542;2023-03-23T07:39:41;9.40;99.90
54576;DHT22;40472;53.486;14.542;2023-03-23T07:42:08;9.40;99.90
54576;DHT22;40472;53.486;14.542;2023-03-23T07:44:34;9.40;99.90
54576;DHT22;40472;53.486;14.542;2023-03-23T07:46:59;9.40;99.90
54576;DHT22;40472;53.486;14.542;2023-03-23T07:49:25;9.40;99.90
54576;DHT22;40472;53.486;14.542;2023-03-23T07:51:52;9.40;99.90
54576;DHT22;40472;53.486;14.542;2023-03-23T07:54:18;9.40;99.90
54576;DHT22;40472;53.486;14.542;2023-03-23T07:56:44;9.40;99.90
54576;DHT22;40472;53.486;14.542;2023-03-23T07:59:11;9.40;99.90
54576;DHT22;40472;53.486;14.542;2023-03-23T08:01:38;9.50;99.90
54576;DHT22;40472;53.486;14.542;2023-03-23T08:04:05;9.50;99.90
54576;DHT22;40472;53.486;14.542;2023-03-23T08:06:33;9.50;99.90
54576;DHT22;40472;53.486;14.542;2023-03-23T08:09:00;9.50;99.90
54576;DHT22;40472;53.486;14.542;2023-03-23T08:11:26;9.50;99.90
54576;DHT22;40472;53.486;14.542;2023-03-23T08:13:52;9.50;99.90
54576;DHT22;40472;53.486;14.542;2023-03-23T08:16:18;9.60;99.90
54576;DHT22;40472;53.486;14.542;2023-03-23T08:18:45;9.60;99.90
54576;DHT22;40472;53.486;14.542;2023-03-23T08:21:12;9.70;99.90
54576;DHT22;40472;53.486;14.542;2023-03-23T08:23:38;9.70;99.90
54576;DHT22;40472;53.486;14.542;2023-03-23T08:26:08;9.80;99.90
54576;DHT22;40472;53.486;14.542;2023-03-23T08:28:35;9.80;99.90
54576;DHT22;40472;53.486;14.542;2023-03-23T08:31:09;9.80;99.90
54576;DHT22;40472;53.486;14.542;2023-03-23T08:33:36;9.80;99.90
54576;DHT22;40472;53.486;14.542;2023-03-23T08:36:03;9.90;99.90
54576;DHT22;40472;53.486;14.542;2023-03-23T08:38:29;9.80;99.90
54576;DHT22;40472;53.486;14.542;2023-03-23T08:41:03;9.80;99.90
54576;DHT22;40472;53.486;14.542;2023-03-23T08:43:32;9.90;99.90
54576;DHT22;40472;53.486;14.542;2023-03-23T08:45:58;9.90;99.90
54576;DHT22;40472;53.486;14.542;2023-03-23T08:48:24;9.90;99.90
54576;DHT22;40472;53.486;14.542;2023-03-23T08:50:50;10.00;99.90
54576;DHT22;40472;53.486;14.542;2023-03-23T08:53:18;10.00;99.90
54576;DHT22;40472;53.486;14.542;2023-03-23T08:55:47;10.10;99.90
54576;DHT22;40472;53.486;14.542;2023-03-23T08:58:14;10.10;99.90
54576;DHT22;40472;53.486;14.542;2023-03-23T09:00:40;10.10;99.90
54576;DHT22;40472;53.486;14.542;2023-03-23T09:03:06;10.10;99.90
54576;DHT22;40472;53.486;14.542;2023-03-23T09:05:32;10.10;99.90
54576;DHT22;40472;53.486;14.542;2023-03-23T09:07:58;10.20;99.90
54576;DHT22;40472;53.486;14.542;2023-03-23T09:10:27;10.20;99.90
54576;DHT22;40472;53.486;14.542;2023-03-23T09:12:53;10.20;99.90
54576;DHT22;40472;53.486;14.542;2023-03-23T09:15:20;10.30;99.90
54576;DHT22;40472;53.486;14.542;2023-03-23T09:17:48;10.30;99.90
54576;DHT22;40472;53.486;14.542;2023-03-23T09:20:22;10.30;99.90
54576;DHT22;40472;53.486;14.542;2023-03-23T09:22:50;10.30;99.90
54576;DHT22;40472;53.486;14.542;2023-03-23T09:25:19;10.40;99.90
54576;DHT22;40472;53.486;14.542;2023-03-23T09:27:49;10.60;99.90
54576;DHT22;40472;53.486;14.542;2023-03-23T09:32:56;10.60;99.90
54576;DHT22;40472;53.486;14.542;2023-03-23T09:35:24;10.70;99.90
54576;DHT22;40472;53.486;14.542;2023-03-23T09:37:51;10.70;99.90
54576;DHT22;40472;53.486;14.542;2023-03-23T09:48:46;11.30;99.90
54576;DHT22;40472;53.486;14.542;2023-03-23T09:53:55;11.40;99.90
54576;DHT22;40472;53.486;14.542;2023-03-23T09:56:21;11.50;99.90
54576;DHT22;40472;53.486;14.542;2023-03-23T09:59:01;11.40;99.90
54576;DHT22;40472;53.486;14.542;2023-03-23T10:01:44;11.50;99.90
54576;DHT22;40472;53.486;14.542;2023-03-23T10:04:36;11.50;99.90
54576;DHT22;40472;53.486;14.542;2023-03-23T10:07:18;11.70;99.90
54576;DHT22;40472;53.486;14.542;2023-03-23T10:09:47;11.90;99.90
54576;DHT22;40472;53.486;14.542;2023-03-23T10:18:09;12.30;99.90
54576;DHT22;40472;53.486;14.542;2023-03-23T10:20:59;12.50;99.90
54576;DHT22;40472;53.486;14.542;2023-03-23T10:26:25;12.50;99.90
54576;DHT22;40472;53.486;14.542;2023-03-23T10:29:09;12.50;99.90
54576;DHT22;40472;53.486;14.542;2023-03-23T10:31:40;12.40;99.90
54576;DHT22;40472;53.486;14.542;2023-03-23T10:39:43;12.30;99.90
54576;DHT22;40472;53.486;14.542;2023-03-23T10:42:10;12.20;99.90
54576;DHT22;40472;53.486;14.542;2023-03-23T10:44:36;12.30;99.90
54576;DHT22;40472;53.486;14.542;2023-03-23T10:47:06;12.50;99.90
54576;DHT22;40472;53.486;14.542;2023-03-23T10:49:45;12.70;99.90
54576;DHT22;40472;53.486;14.542;2023-03-23T10:52:24;12.70;99.90
54576;DHT22;40472;53.486;14.542;2023-03-23T10:55:17;12.80;99.90
54576;DHT22;40472;53.486;14.542;2023-03-23T10:57:58;12.90;99.90
54576;DHT22;40472;53.486;14.542;2023-03-23T11:03:20;12.80;99.90
54576;DHT22;40472;53.486;14.542;2023-03-23T11:05:52;12.90;99.90
54576;DHT22;40472;53.486;14.542;2023-03-23T11:08:23;13.00;99.90
54576;DHT22;40472;53.486;14.542;2023-03-23T11:10:54;13.00;99.90
54576;DHT22;40472;53.486;14.542;2023-03-23T11:13:23;13.10;99.90
54576;DHT22;40472;53.486;14.542;2023-03-23T11:15:52;13.10;99.90
54576;DHT22;40472;53.486;14.542;2023-03-23T11:18:27;13.30;99.90
54576;DHT22;40472;53.486;14.542;2023-03-23T11:21:00;13.30;99.90
54576;DHT22;40472;53.486;14.542;2023-03-23T11:23:51;13.30;99.90
54576;DHT22;40472;53.486;14.542;2023-03-23T11:26:36;13.40;99.90
54576;DHT22;40472;53.486;14.542;2023-03-23T11:29:13;13.50;99.90
54576;DHT22;40472;53.486;14.542;2023-03-23T11:34:14;13.60;99.90
54576;DHT22;40472;53.486;14.542;2023-03-23T11:36:47;13.70;99.90
54576;DHT22;40472;53.486;14.542;2023-03-23T11:39:31;13.60;99.90
54576;DHT22;40472;53.486;14.542;2023-03-23T11:42:01;13.80;99.90
54576;DHT22;40472;53.486;14.542;2023-03-23T11:44:40;13.80;99.90
54576;DHT22;40472;53.486;14.542;2023-03-23T11:52:24;13.80;99.90
54576;DHT22;40472;53.486;14.542;2023-03-23T11:55:09;13.80;99.90
54576;DHT22;40472;53.486;14.542;2023-03-23T11:57:37;13.80;99.90
54576;DHT22;40472;53.486;14.542;2023-03-23T12:00:18;14.00;99.90
54576;DHT22;40472;53.486;14.542;2023-03-23T12:05:57;14.10;99.90
54576;DHT22;40472;53.486;14.542;2023-03-23T12:14:16;14.20;99.90
54576;DHT22;40472;53.486;14.542;2023-03-23T12:17:06;14.20;99.90
54576;DHT22;40472;53.486;14.542;2023-03-23T12:30:38;13.70;99.90
54576;DHT22;40472;53.486;14.542;2023-03-23T12:43:58;13.80;99.90
54576;DHT22;40472;53.486;14.542;2023-03-23T12:46:59;13.70;99.90
54576;DHT22;40472;53.486;14.542;2023-03-23T12:49:45;13.80;99.90
54576;DHT22;40472;53.486;14.542;2023-03-23T12:52:28;13.90;99.90
54576;DHT22;40472;53.486;14.542;2023-03-23T12:55:01;14.00;99.90
54576;DHT22;40472;53.486;14.542;2023-03-23T12:57:36;14.00;99.90
54576;DHT22;40472;53.486;14.542;2023-03-23T13:03:02;13.90;99.90
54576;DHT22;40472;53.486;14.542;2023-03-23T13:05:49;13.80;99.90
54576;DHT22;40472;53.486;14.542;2023-03-23T13:08:27;13.80;99.90
54576;DHT22;40472;53.486;14.542;2023-03-23T13:11:04;13.70;99.90
54576;DHT22;40472;53.486;14.542;2023-03-23T13:13:53;13.70;99.90
54576;DHT22;40472;53.486;14.542;2023-03-23T13:21:49;13.80;99.90
54576;DHT22;40472;53.486;14.542;2023-03-23T13:24:20;13.80;99.90
54576;DHT22;40472;53.486;14.542;2023-03-23T13:26:51;13.80;99.90
54576;DHT22;40472;53.486;14.542;2023-03-23T13:29:28;13.90;99.90
54576;DHT22;40472;53.486;14.542;2023-03-23T13:32:11;14.10;99.90
54576;DHT22;40472;53.486;14.542;2023-03-23T13:34:39;14.20;99.90
54576;DHT22;40472;53.486;14.542;2023-03-23T13:37:19;14.10;99.90
54576;DHT22;40472;53.486;14.542;2023-03-23T13:39:56;14.20;99.90
54576;DHT22;40472;53.486;14.542;2023-03-23T13:42:26;14.10;99.90
54576;DHT22;40472;53.486;14.542;2023-03-23T14:09:26;13.80;99.90
54576;DHT22;40472;53.486;14.542;2023-03-23T14:11:56;13.80;99.90
54576;DHT22;40472;53.486;14.542;2023-03-23T14:14:33;13.80;99.90
54576;DHT22;40472;53.486;14.542;2023-03-23T14:17:25;13.80;99.90
54576;DHT22;40472;53.486;14.542;2023-03-23T14:19:54;13.70;99.90
54576;DHT22;40472;53.486;14.542;2023-03-23T14:22:31;13.60;99.90
54576;DHT22;40472;53.486;14.542;2023-03-23T14:25:17;13.50;99.90
54576;DHT22;40472;53.486;14.542;2023-03-23T14:27:44;13.20;99.90
54576;DHT22;40472;53.486;14.542;2023-03-23T14:30:19;11.90;99.90
54576;DHT22;40472;53.486;14.542;2023-03-23T14:32:45;11.30;99.90
54576;DHT22;40472;53.486;14.542;2023-03-23T14:35:32;10.70;99.90
54576;DHT22;40472;53.486;14.542;2023-03-23T14:37:58;10.30;99.90
54576;DHT22;40472;53.486;14.542;2023-03-23T14:40:26;10.10;99.90
54576;DHT22;40472;53.486;14.542;2023-03-23T14:42:53;9.90;99.90
54576;DHT22;40472;53.486;14.542;2023-03-23T14:45:21;9.90;99.90
54576;DHT22;40472;53.486;14.542;2023-03-23T14:50:27;9.80;99.90
54576;DHT22;40472;53.486;14.542;2023-03-23T14:53:01;9.80;99.90
54576;DHT22;40472;53.486;14.542;2023-03-23T14:55:27;9.80;99.90
54576;DHT22;40472;53.486;14.542;2023-03-23T14:58:06;9.70;99.90
54576;DHT22;40472;53.486;14.542;2023-03-23T15:00:36;9.70;99.90
54576;DHT22;40472;53.486;14.542;2023-03-23T15:03:05;9.80;99.90
54576;DHT22;40472;53.486;14.542;2023-03-23T15:05:42;9.80;99.90
54576;DHT22;40472;53.486;14.542;2023-03-23T15:10:53;9.80;99.90
54576;DHT22;40472;53.486;14.542;2023-03-23T15:13:20;9.90;99.90
54576;DHT22;40472;53.486;14.542;2023-03-23T15:15:45;9.90;99.90
54576;DHT22;40472;53.486;14.542;2023-03-23T15:18:31;9.90;99.90
54576;DHT22;40472;53.486;14.542;2023-03-23T15:20:57;10.00;99.90
54576;DHT22;40472;53.486;14.542;2023-03-23T15:23:28;10.00;99.90
54576;DHT22;40472;53.486;14.542;2023-03-23T15:25:56;10.10;99.90
54576;DHT22;40472;53.486;14.542;2023-03-23T15:28:29;10.20;99.90
54576;DHT22;40472;53.486;14.542;2023-03-23T15:31:01;10.40;99.90
54576;DHT22;40472;53.486;14.542;2023-03-23T15:33:39;10.40;99.90
54576;DHT22;40472;53.486;14.542;2023-03-23T15:36:18;10.40;99.90
54576;DHT22;40472;53.486;14.542;2023-03-23T15:38:46;10.30;99.90
54576;DHT22;40472;53.486;14.542;2023-03-23T15:41:27;10.40;99.90
54576;DHT22;40472;53.486;14.542;2023-03-23T15:44:18;10.40;99.90
54576;DHT22;40472;53.486;14.542;2023-03-23T15:49:41;10.60;99.90
54576;DHT22;40472;53.486;14.542;2023-03-23T15:52:10;10.70;99.90
54576;DHT22;40472;53.486;14.542;2023-03-23T15:54:36;10.90;99.90
54576;DHT22;40472;53.486;14.542;2023-03-23T15:57:02;11.00;99.90
54576;DHT22;40472;53.486;14.542;2023-03-23T15:59:28;11.10;99.90
54576;DHT22;40472;53.486;14.542;2023-03-23T16:01:55;11.10;99.90
54576;DHT22;40472;53.486;14.542;2023-03-23T16:04:21;11.10;99.90
54576;DHT22;40472;53.486;14.542;2023-03-23T16:06:47;11.20;99.90
54576;DHT22;40472;53.486;14.542;2023-03-23T16:09:17;11.20;99.90
54576;DHT22;40472;53.486;14.542;2023-03-23T16:11:43;11.20;99.90
54576;DHT22;40472;53.486;14.542;2023-03-23T16:14:10;11.10;99.90
54576;DHT22;40472;53.486;14.542;2023-03-23T16:16:42;11.10;99.90
54576;DHT22;40472;53.486;14.542;2023-03-23T16:19:11;11.00;99.90
54576;DHT22;40472;53.486;14.542;2023-03-23T16:21:37;10.90;99.90
54576;DHT22;40472;53.486;14.542;2023-03-23T16:24:03;10.80;99.90
54576;DHT22;40472;53.486;14.542;2023-03-23T16:26:29;10.70;99.90
54576;DHT22;40472;53.486;14.542;2023-03-23T16:28:55;10.70;99.90
54576;DHT22;40472;53.486;14.542;2023-03-23T16:31:21;10.70;99.90
54576;DHT22;40472;53.486;14.542;2023-03-23T16:33:47;10.60;99.90
54576;DHT22;40472;53.486;14.542;2023-03-23T16:36:13;10.60;99.90
54576;DHT22;40472;53.486;14.542;2023-03-23T16:38:40;10.60;99.90
54576;DHT22;40472;53.486;14.542;2023-03-23T16:41:07;10.50;99.90
54576;DHT22;40472;53.486;14.542;2023-03-23T16:43:34;10.50;99.90
54576;DHT22;40472;53.486;14.542;2023-03-23T16:46:00;10.50;99.90
54576;DHT22;40472;53.486;14.542;2023-03-23T16:48:26;10.50;99.90
54576;DHT22;40472;53.486;14.542;2023-03-23T16:50:52;10.40;99.90
54576;DHT22;40472;53.486;14.542;2023-03-23T16:53:19;10.40;99.90
54576;DHT22;40472;53.486;14.542;2023-03-23T16:55:45;10.40;99.90
54576;DHT22;40472;53.486;14.542;2023-03-23T16:58:14;10.40;99.90
54576;DHT22;40472;53.486;14.542;2023-03-23T17:00:40;10.40;99.90
54576;DHT22;40472;53.486;14.542;2023-03-23T17:03:07;10.50;99.90
54576;DHT22;40472;53.486;14.542;2023-03-23T17:05:34;10.40;99.90
54576;DHT22;40472;53.486;14.542;2023-03-23T17:08:01;10.40;99.90
54576;DHT22;40472;53.486;14.542;2023-03-23T17:10:27;10.40;99.90
54576;DHT22;40472;53.486;14.542;2023-03-23T17:12:54;10.30;99.90
54576;DHT22;40472;53.486;14.542;2023-03-23T17:15:20;10.30;99.90
54576;DHT22;40472;53.486;14.542;2023-03-23T17:17:48;10.20;99.90
54576;DHT22;40472;53.486;14.542;2023-03-23T17:20:16;10.10;99.90
54576;DHT22;40472;53.486;14.542;2023-03-23T17:22:49;10.00;99.90
54576;DHT22;40472;53.486;14.542;2023-03-23T17:25:15;10.00;99.90
54576;DHT22;40472;53.486;14.542;2023-03-23T17:27:41;10.00;99.90
54576;DHT22;40472;53.486;14.542;2023-03-23T17:30:08;10.00;99.90
54576;DHT22;40472;53.486;14.542;2023-03-23T17:32:34;10.00;99.90
54576;DHT22;40472;53.486;14.542;2023-03-23T17:35:01;10.00;99.90
54576;DHT22;40472;53.486;14.542;2023-03-23T17:37:27;10.00;99.90
54576;DHT22;40472;53.486;14.542;2023-03-23T17:39:53;10.00;99.90
54576;DHT22;40472;53.486;14.542;2023-03-23T17:42:18;10.00;99.90
54576;DHT22;40472;53.486;14.542;2023-03-23T17:44:44;10.00;99.90